Time;durP1;ratioP1;P1;durP2;ratioP2;P2;SDS_P1;SDS_P2;PMS_P1;PMS_P2;Temp;Humidity;BMP_temperature;BMP_pressure;BME280_temperature;BME280_humidity;BME280_pressure;Samples;Min_cycle;Max_cycle;Signal;HPM_P1;HPM_P2
2022/09/13 00:01:09;;;;;;;8.52;6.40;;;;;;;;;;5093015;27;93100;-68
2022/09/13 00:03:36;;;;;;;7.88;5.65;;;;;;;;;;5086101;27;93122;-68
2022/09/13 00:06:21;;;;;;;7.03;5.82;;;;;;;;;;5077375;27;92601;-68
2022/09/13 00:08:47;;;;;;;6.57;6.07;;;;;;;;;;5076482;27;93918;-68
2022/09/13 00:11:15;;;;;;;6.63;5.97;;;;;;;;;;5077447;27;94070;-68
2022/09/13 00:13:42;;;;;;;7.53;6.32;;;;;;;;;;5077251;27;91655;-68
2022/09/13 00:16:10;;;;;;;11.13;6.32;;;;;;;;;;5075851;27;92431;-68
2022/09/13 00:18:36;;;;;;;7.43;6.13;;;;;;;;;;5076607;27;93358;-68
2022/09/13 00:21:07;;;;;;;6.88;6.13;;;;;;;;;;5075134;27;94878;-68
2022/09/13 00:23:34;;;;;;;7.07;6.57;;;;;;;;;;5091439;27;96388;-68
2022/09/13 00:26:02;;;;;;;7.35;6.75;;;;;;;;;;5093194;27;92900;-68
2022/09/13 00:28:28;;;;;;;8.15;6.60;;;;;;;;;;5077185;27;92848;-68
2022/09/13 00:30:58;;;;;;;6.85;6.32;;;;;;;;;;5075726;27;94113;-68
2022/09/13 00:33:24;;;;;;;7.13;6.32;;;;;;;;;;5076469;27;92424;-68
2022/09/13 00:35:50;;;;;;;7.65;6.20;;;;;;;;;;5076762;27;93675;-68
2022/09/13 00:38:16;;;;;;;9.52;5.70;;;;;;;;;;5093106;27;92418;-68
2022/09/13 00:40:43;;;;;;;6.95;6.25;;;;;;;;;;5096849;27;92472;-68
2022/09/13 00:43:15;;;;;;;10.07;6.07;;;;;;;;;;5096520;27;93016;-69
2022/09/13 00:45:41;;;;;;;6.03;5.60;;;;;;;;;;5096882;27;95637;-68
2022/09/13 00:48:11;;;;;;;5.60;5.18;;;;;;;;;;5092120;27;95357;-68
2022/09/13 00:50:41;;;;;;;10.48;5.35;;;;;;;;;;5075165;27;94138;-68
2022/09/13 00:53:10;;;;;;;7.43;5.65;;;;;;;;;;5077003;27;92381;-68
2022/09/13 00:55:55;;;;;;;5.40;4.93;;;;;;;;;;5076795;27;94136;-68
2022/09/13 00:58:24;;;;;;;5.53;5.10;;;;;;;;;;5074689;27;93763;-68
2022/09/13 01:00:51;;;;;;;6.57;5.93;;;;;;;;;;5076385;27;92435;-68
2022/09/13 01:03:18;;;;;;;6.20;5.60;;;;;;;;;;5077218;27;93913;-68
2022/09/13 01:05:47;;;;;;;11.15;6.20;;;;;;;;;;5074925;27;93483;-68
2022/09/13 01:08:21;;;;;;;6.15;5.60;;;;;;;;;;5078151;27;92395;-68
2022/09/13 01:10:49;;;;;;;6.38;5.78;;;;;;;;;;5073973;27;96307;-68
2022/09/13 01:13:22;;;;;;;7.47;5.88;;;;;;;;;;5075974;27;93221;-68
2022/09/13 01:15:49;;;;;;;8.07;6.20;;;;;;;;;;5076254;27;95337;-68
2022/09/13 01:18:16;;;;;;;5.65;5.25;;;;;;;;;;5075911;27;93591;-68
2022/09/13 01:21:01;;;;;;;6.53;5.88;;;;;;;;;;5074975;27;92434;-68
2022/09/13 01:23:45;;;;;;;8.65;6.00;;;;;;;;;;5075698;27;92303;-68
2022/09/13 01:26:30;;;;;;;8.43;5.47;;;;;;;;;;5081554;27;94224;-68
2022/09/13 01:28:57;;;;;;;10.20;7.25;;;;;;;;;;5085224;27;91629;-68
2022/09/13 01:31:29;;;;;;;8.38;7.63;;;;;;;;;;5075349;27;93889;-68
2022/09/13 01:34:14;;;;;;;8.82;7.95;;;;;;;;;;5074487;27;92766;-68
2022/09/13 01:36:58;;;;;;;10.93;8.43;;;;;;;;;;5073929;27;94845;-68
2022/09/13 01:39:33;;;;;;;9.73;8.77;;;;;;;;;;5075261;27;93244;-68
2022/09/13 01:42:10;;;;;;;11.00;8.32;;;;;;;;;;5075241;27;92350;-68
2022/09/13 01:44:59;;;;;;;9.73;7.60;;;;;;;;;;5076307;27;93887;-68
2022/09/13 01:47:28;;;;;;;10.20;9.13;;;;;;;;;;5074445;27;93334;-68
2022/09/13 01:49:57;;;;;;;10.35;8.63;;;;;;;;;;5075142;27;92419;-68
2022/09/13 01:52:29;;;;;;;8.55;7.72;;;;;;;;;;5078669;27;94151;-68
2022/09/13 01:55:04;;;;;;;11.40;9.27;;;;;;;;;;5086188;27;91819;-68
2022/09/13 01:57:33;;;;;;;9.75;8.30;;;;;;;;;;5096491;27;93166;-68
2022/09/13 02:00:03;;;;;;;11.00;8.45;;;;;;;;;;5095765;27;94194;-68
2022/09/13 02:02:43;;;;;;;9.75;8.80;;;;;;;;;;5081928;27;94734;-68
2022/09/13 02:05:09;;;;;;;;;;;;;;;;;;5075483;27;95200;-67
2022/09/13 02:07:39;;;;;;;7.70;7.07;;;;;;;;;;5075882;27;123656;-68
2022/09/13 02:10:11;;;;;;;9.18;7.07;;;;;;;;;;5074590;27;92279;-68
2022/09/13 02:12:40;;;;;;;8.20;7.55;;;;;;;;;;5075133;27;92983;-68
2022/09/13 02:15:13;;;;;;;10.57;7.88;;;;;;;;;;5077111;27;93172;-68
2022/09/13 02:17:42;;;;;;;8.05;7.30;;;;;;;;;;5076243;27;92716;-68
2022/09/13 02:20:14;;;;;;;13.50;8.18;;;;;;;;;;5078934;27;92674;-68
2022/09/13 02:22:40;;;;;;;;;;;;;;;;;;5074699;27;93029;-68
2022/09/13 02:25:10;;;;;;;8.27;7.47;;;;;;;;;;5075848;27;123200;-68
2022/09/13 02:27:37;;;;;;;8.90;8.00;;;;;;;;;;5091412;27;96472;-68
2022/09/13 02:30:05;;;;;;;9.55;8.50;;;;;;;;;;5095141;27;92413;-69
2022/09/13 02:32:37;;;;;;;9.05;8.20;;;;;;;;;;5096025;27;93936;-68
2022/09/13 02:35:07;;;;;;;9.65;8.85;;;;;;;;;;5095709;27;93066;-68
2022/09/13 02:37:35;;;;;;;9.52;8.38;;;;;;;;;;5077247;27;92610;-68
2022/09/13 02:40:03;;;;;;;8.52;7.78;;;;;;;;;;5074751;27;93152;-68
2022/09/13 02:42:35;;;;;;;12.05;8.85;;;;;;;;;;5075321;27;92508;-68
2022/09/13 02:45:02;;;;;;;12.48;8.85;;;;;;;;;;5074772;27;93970;-68
2022/09/13 02:47:43;;;;;;;9.20;8.15;;;;;;;;;;5074122;27;93656;-68
2022/09/13 02:50:18;;;;;;;9.73;8.90;;;;;;;;;;5079669;27;92446;-68
2022/09/13 02:52:51;;;;;;;9.48;8.55;;;;;;;;;;5089403;27;94859;-68
2022/09/13 02:55:20;;;;;;;9.43;8.50;;;;;;;;;;5074313;27;93067;-68
2022/09/13 02:57:58;;;;;;;10.10;8.75;;;;;;;;;;5074969;27;93325;-68
2022/09/13 03:00:24;;;;;;;9.63;8.82;;;;;;;;;;5077894;27;93967;-68
2022/09/13 03:02:52;;;;;;;9.07;8.20;;;;;;;;;;5075019;27;93382;-68
2022/09/13 03:05:18;;;;;;;9.00;8.10;;;;;;;;;;5074673;27;92922;-68
2022/09/13 03:07:45;;;;;;;9.50;8.60;;;;;;;;;;5077146;27;93081;-68
2022/09/13 03:10:13;;;;;;;15.40;9.20;;;;;;;;;;5078439;27;93410;-69
2022/09/13 03:12:51;;;;;;;9.88;9.05;;;;;;;;;;5076771;27;92422;-68
2022/09/13 03:15:28;;;;;;;10.10;9.18;;;;;;;;;;5077551;27;94008;-68
2022/09/13 03:18:13;;;;;;;13.85;10.93;;;;;;;;;;5075401;27;94880;-68
2022/09/13 03:20:52;;;;;;;12.05;10.90;;;;;;;;;;5079698;27;95486;-68
2022/09/13 03:23:37;;;;;;;13.57;10.45;;;;;;;;;;5076451;27;92471;-67
2022/09/13 03:26:23;;;;;;;12.88;11.52;;;;;;;;;;5081193;27;92936;-68
2022/09/13 03:29:05;;;;;;;14.02;11.25;;;;;;;;;;5076422;27;94204;-68
2022/09/13 03:31:34;;;;;;;14.00;11.18;;;;;;;;;;5077380;27;92349;-68
2022/09/13 03:34:08;;;;;;;14.93;12.07;;;;;;;;;;5075575;27;94717;-68
2022/09/13 03:36:46;;;;;;;18.23;13.30;;;;;;;;;;5077657;27;93288;-68
2022/09/13 03:39:18;;;;;;;13.02;11.63;;;;;;;;;;5076372;27;92357;-68
2022/09/13 03:41:45;;;;;;;;;;;;;;;;;;5077280;27;94070;-68
2022/09/13 03:44:13;;;;;;;15.82;12.55;;;;;;;;;;5080089;27;126142;-68
2022/09/13 03:46:41;;;;;;;12.70;11.35;;;;;;;;;;5075196;27;95163;-68
2022/09/13 03:49:10;;;;;;;16.52;12.18;;;;;;;;;;5076404;27;93229;-68
2022/09/13 03:51:37;;;;;;;13.02;11.77;;;;;;;;;;5075861;27;92470;-68
2022/09/13 03:54:07;;;;;;;13.63;11.80;;;;;;;;;;5075090;27;92916;-67
2022/09/13 03:56:33;;;;;;;14.77;12.10;;;;;;;;;;5075964;27;94580;-67
2022/09/13 03:59:00;;;;;;;15.15;12.10;;;;;;;;;;5076066;27;92997;-68
2022/09/13 04:01:26;;;;;;;13.55;12.25;;;;;;;;;;5085459;27;93083;-68
2022/09/13 04:03:53;;;;;;;13.43;11.98;;;;;;;;;;5096401;27;93533;-68
2022/09/13 04:06:22;;;;;;;16.60;12.68;;;;;;;;;;5099906;27;92440;-68
2022/09/13 04:08:48;;;;;;;15.30;13.70;;;;;;;;;;5093639;27;95872;-68
2022/09/13 04:11:15;;;;;;;19.13;12.75;;;;;;;;;;5096714;27;92629;-68
2022/09/13 04:13:41;;;;;;;14.50;12.25;;;;;;;;;;5095896;27;92495;-68
2022/09/13 04:16:07;;;;;;;17.60;12.77;;;;;;;;;;5095899;27;93330;-68
2022/09/13 04:18:34;;;;;;;18.75;13.18;;;;;;;;;;5095550;27;94062;-68
2022/09/13 04:21:00;;;;;;;16.27;13.35;;;;;;;;;;5096583;27;93434;-68
2022/09/13 04:23:27;;;;;;;15.15;13.32;;;;;;;;;;5096444;27;94083;-67
2022/09/13 04:25:54;;;;;;;13.30;12.00;;;;;;;;;;5092666;27;92183;-70
2022/09/13 04:28:21;;;;;;;15.45;12.27;;;;;;;;;;5078933;27;92448;-68
2022/09/13 04:30:48;;;;;;;15.40;12.80;;;;;;;;;;5075374;27;92716;-68
2022/09/13 04:33:16;;;;;;;13.95;12.55;;;;;;;;;;5073790;27;95371;-68
2022/09/13 04:35:42;;;;;;;14.60;12.15;;;;;;;;;;5087385;27;94187;-68
2022/09/13 04:38:08;;;;;;;13.43;12.00;;;;;;;;;;5096377;27;92500;-67
2022/09/13 04:40:36;;;;;;;13.15;11.82;;;;;;;;;;5096965;27;93938;-68
2022/09/13 04:43:02;;;;;;;15.60;12.40;;;;;;;;;;5096483;27;93941;-68
2022/09/13 04:45:28;;;;;;;13.82;12.68;;;;;;;;;;5095987;27;92414;-68
2022/09/13 04:47:55;;;;;;;14.43;12.40;;;;;;;;;;5087067;27;92912;-68
2022/09/13 04:50:22;;;;;;;14.65;12.13;;;;;;;;;;5077084;27;92734;-68
2022/09/13 04:52:49;;;;;;;21.33;12.93;;;;;;;;;;5075549;27;92477;-68
2022/09/13 04:55:15;;;;;;;15.30;13.20;;;;;;;;;;5075717;27;94089;-68
2022/09/13 04:57:42;;;;;;;17.77;13.65;;;;;;;;;;5072618;27;95108;-68
2022/09/13 05:00:09;;;;;;;18.25;13.68;;;;;;;;;;5075184;27;95581;-67
2022/09/13 05:02:35;;;;;;;16.77;14.20;;;;;;;;;;5075684;27;94085;-68
2022/09/13 05:05:02;;;;;;;20.23;14.45;;;;;;;;;;5074342;27;92490;-68
2022/09/13 05:07:28;;;;;;;16.50;13.77;;;;;;;;;;5075622;27;94003;-68
2022/09/13 05:09:54;;;;;;;17.65;13.50;;;;;;;;;;5075457;27;94332;-67
2022/09/13 05:12:21;;;;;;;19.83;13.68;;;;;;;;;;5077389;27;92928;-68
2022/09/13 05:14:47;;;;;;;17.45;13.23;;;;;;;;;;5075598;27;93587;-68
2022/09/13 05:17:13;;;;;;;16.45;13.32;;;;;;;;;;5076865;27;92410;-68
2022/09/13 05:19:39;;;;;;;17.55;13.80;;;;;;;;;;5093775;27;93018;-68
2022/09/13 05:22:06;;;;;;;18.08;14.13;;;;;;;;;;5073645;27;96105;-68
2022/09/13 05:24:32;;;;;;;16.08;13.65;;;;;;;;;;5075284;27;92320;-68
2022/09/13 05:26:59;;;;;;;18.70;14.52;;;;;;;;;;5075176;27;93110;-68
2022/09/13 05:29:25;;;;;;;16.98;14.30;;;;;;;;;;5074006;27;94118;-67
2022/09/13 05:31:51;;;;;;;19.40;15.18;;;;;;;;;;5077540;27;92462;-67
2022/09/13 05:34:18;;;;;;;24.95;16.00;;;;;;;;;;5078714;27;94252;-68
2022/09/13 05:36:45;;;;;;;18.30;15.07;;;;;;;;;;5095640;27;92456;-68
2022/09/13 05:39:17;;;;;;;19.05;15.88;;;;;;;;;;5095593;27;93746;-68
2022/09/13 05:42:03;;;;;;;20.90;14.63;;;;;;;;;;5095175;27;94191;-68
2022/09/13 05:44:29;;;;;;;22.15;15.55;;;;;;;;;;5076436;27;92899;-68
2022/09/13 05:46:56;;;;;;;26.73;17.75;;;;;;;;;;5079846;27;96180;-68
2022/09/13 05:49:22;;;;;;;20.98;16.90;;;;;;;;;;5088011;27;94084;-69
2022/09/13 05:51:49;;;;;;;19.40;16.30;;;;;;;;;;5073579;27;92571;-68
2022/09/13 05:54:15;;;;;;;28.95;17.23;;;;;;;;;;5075944;27;93977;-69
2022/09/13 05:56:41;;;;;;;19.83;16.60;;;;;;;;;;5074694;27;92425;-68
2022/09/13 05:59:10;;;;;;;21.75;16.60;;;;;;;;;;5073878;27;93127;-68
2022/09/13 06:01:36;;;;;;;27.00;18.67;;;;;;;;;;5082049;27;94585;-68
2022/09/13 06:04:03;;;;;;;20.10;17.98;;;;;;;;;;5076754;27;92026;-68
2022/09/13 06:06:29;;;;;;;26.25;17.30;;;;;;;;;;5079460;27;93263;-68
2022/09/13 06:08:56;;;;;;;20.33;17.20;;;;;;;;;;5084464;27;93502;-68
2022/09/13 06:11:24;;;;;;;24.42;17.92;;;;;;;;;;5070971;27;94955;-68
2022/09/13 06:13:50;;;;;;;21.40;17.40;;;;;;;;;;5073732;27;95558;-68
2022/09/13 06:16:17;;;;;;;20.77;16.48;;;;;;;;;;5077182;27;93247;-68
2022/09/13 06:18:43;;;;;;;24.27;16.10;;;;;;;;;;5073225;27;93131;-68
2022/09/13 06:21:10;;;;;;;21.10;17.55;;;;;;;;;;5071948;27;93492;-68
2022/09/13 06:23:37;;;;;;;28.58;18.73;;;;;;;;;;5074358;27;92454;-68
2022/09/13 06:26:07;;;;;;;25.95;19.33;;;;;;;;;;5073361;27;96179;-68
2022/09/13 06:28:34;;;;;;;29.50;18.42;;;;;;;;;;5071764;27;95715;-68
2022/09/13 06:31:06;;;;;;;25.52;18.17;;;;;;;;;;5088855;27;92418;-68
2022/09/13 06:33:33;;;;;;;27.73;19.55;;;;;;;;;;5092304;27;94162;-68
2022/09/13 06:36:01;;;;;;;28.33;19.17;;;;;;;;;;5070923;27;95471;-68
2022/09/13 06:38:27;;;;;;;23.23;18.30;;;;;;;;;;5078772;27;92456;-68
2022/09/13 06:41:07;;;;;;;26.80;19.00;;;;;;;;;;5074991;27;93007;-68
2022/09/13 06:43:34;;;;;;;23.15;19.13;;;;;;;;;;5085723;27;92544;-68
2022/09/13 06:46:01;;;;;;;31.75;20.92;;;;;;;;;;5078106;27;93125;-68
2022/09/13 06:48:31;;;;;;;19.60;14.02;;;;;;;;;;5075796;27;94653;-69
2022/09/13 06:50:58;;;;;;;31.15;22.10;;;;;;;;;;5075659;27;92595;-68
2022/09/13 06:53:27;;;;;;;31.77;23.40;;;;;;;;;;5077847;27;94059;-68
2022/09/13 06:56:07;;;;;;;36.15;24.00;;;;;;;;;;5079156;27;93353;-68
2022/09/13 06:58:34;;;;;;;36.08;24.08;;;;;;;;;;5075981;27;94698;-68
2022/09/13 07:01:05;;;;;;;42.50;24.48;;;;;;;;;;5081440;27;94928;-68
2022/09/13 07:03:32;;;;;;;34.63;22.67;;;;;;;;;;5076837;27;92445;-68
2022/09/13 07:05:58;;;;;;;39.42;23.67;;;;;;;;;;5089763;27;93948;-68
2022/09/13 07:08:24;;;;;;;33.60;26.08;;;;;;;;;;5084979;27;93530;-68
2022/09/13 07:10:50;;;;;;;36.03;25.95;;;;;;;;;;5096213;27;92539;-68
2022/09/13 07:13:17;;;;;;;30.73;22.33;;;;;;;;;;5089179;27;93036;-69
2022/09/13 07:15:43;;;;;;;30.88;24.67;;;;;;;;;;5074809;27;93030;-68
2022/09/13 07:18:09;;;;;;;44.60;26.70;;;;;;;;;;5082542;27;91682;-68
2022/09/13 07:20:36;;;;;;;35.85;25.63;;;;;;;;;;5098014;27;92365;-68
2022/09/13 07:23:02;;;;;;;30.65;22.42;;;;;;;;;;5094382;27;93392;-68
2022/09/13 07:25:28;;;;;;;34.05;23.67;;;;;;;;;;5077892;27;95571;-68
2022/09/13 07:27:55;;;;;;;33.03;22.67;;;;;;;;;;5082352;27;94386;-68
2022/09/13 07:30:21;;;;;;;29.05;21.58;;;;;;;;;;5077781;27;92485;-68
2022/09/13 07:32:47;;;;;;;29.15;21.10;;;;;;;;;;5074979;27;94000;-68
2022/09/13 07:35:14;;;;;;;31.00;21.48;;;;;;;;;;5078525;27;93362;-68
2022/09/13 07:37:41;;;;;;;30.83;22.52;;;;;;;;;;5076343;27;95143;-68
2022/09/13 07:40:08;;;;;;;33.92;21.75;;;;;;;;;;5085522;27;93155;-68
2022/09/13 07:42:34;;;;;;;22.15;17.75;;;;;;;;;;5078177;27;92426;-68
2022/09/13 07:45:00;;;;;;;18.80;16.73;;;;;;;;;;5082841;27;93770;-69
2022/09/13 07:47:26;;;;;;;19.20;14.85;;;;;;;;;;5075801;27;94295;-69
2022/09/13 07:49:53;;;;;;;23.63;15.95;;;;;;;;;;5073634;27;94867;-69
2022/09/13 07:52:19;;;;;;;22.90;15.13;;;;;;;;;;5075941;27;96445;-68
2022/09/13 07:54:47;;;;;;;20.77;15.80;;;;;;;;;;5073721;27;93955;-68
2022/09/13 07:57:13;;;;;;;24.05;14.82;;;;;;;;;;5076335;27;92336;-68
2022/09/13 07:59:39;;;;;;;16.48;12.93;;;;;;;;;;5075100;27;92842;-68
2022/09/13 08:02:07;;;;;;;16.88;12.68;;;;;;;;;;5076823;27;94138;-68
2022/09/13 08:04:34;;;;;;;21.52;12.57;;;;;;;;;;5078469;27;92539;-69
2022/09/13 08:07:01;;;;;;;21.75;11.55;;;;;;;;;;5095284;27;93634;-68
2022/09/13 08:09:28;;;;;;;21.00;11.82;;;;;;;;;;5096635;27;92393;-69
2022/09/13 08:11:54;;;;;;;10.68;9.57;;;;;;;;;;5097007;27;93919;-69
2022/09/13 08:14:21;;;;;;;12.50;9.77;;;;;;;;;;5095414;27;96530;-69
2022/09/13 08:16:48;;;;;;;12.55;8.45;;;;;;;;;;5076617;27;92466;-71
2022/09/13 08:19:15;;;;;;;10.95;7.60;;;;;;;;;;5078303;27;94083;-69
2022/09/13 08:21:42;;;;;;;9.98;4.60;;;;;;;;;;5075402;27;93250;-69
2022/09/13 08:24:16;;;;;;;7.47;4.90;;;;;;;;;;5081202;27;94522;-69
2022/09/13 08:26:42;;;;;;;7.28;4.38;;;;;;;;;;5080688;27;93132;-68
2022/09/13 08:29:10;;;;;;;7.70;4.05;;;;;;;;;;5076181;27;92979;-69
2022/09/13 08:31:36;;;;;;;4.70;3.63;;;;;;;;;;5077293;27;94031;-69
2022/09/13 08:34:03;;;;;;;4.38;3.58;;;;;;;;;;5076145;27;94310;-69
2022/09/13 08:36:29;;;;;;;7.22;2.92;;;;;;;;;;5074987;27;92511;-69
2022/09/13 08:38:58;;;;;;;11.20;3.30;;;;;;;;;;5074940;27;94733;-69
2022/09/13 08:41:40;;;;;;;8.15;3.83;;;;;;;;;;5077502;27;93570;-69
2022/09/13 08:44:25;;;;;;;6.80;2.70;;;;;;;;;;5076129;27;92492;-69
2022/09/13 08:46:55;;;;;;;2.47;2.22;;;;;;;;;;5076103;27;92993;-69
2022/09/13 08:49:30;;;;;;;7.40;2.67;;;;;;;;;;5077798;27;93369;-69
2022/09/13 08:52:27;;;;;;;4.22;2.35;;;;;;;;;;5076683;27;93142;-69
2022/09/13 08:54:54;;;;;;;3.17;2.00;;;;;;;;;;5017868;27;94103;-69
2022/09/13 08:57:34;;;;;;;4.40;2.30;;;;;;;;;;5083772;27;93748;-69
2022/09/13 09:00:04;;;;;;;2.35;1.40;;;;;;;;;;5085507;27;93449;-69
2022/09/13 09:02:46;;;;;;;5.57;1.60;;;;;;;;;;5075911;27;93952;-69
2022/09/13 09:05:18;;;;;;;2.85;1.63;;;;;;;;;;5074885;27;94821;-68
2022/09/13 09:07:46;;;;;;;4.20;1.80;;;;;;;;;;5076281;27;96287;-69
2022/09/13 09:10:27;;;;;;;6.75;1.70;;;;;;;;;;5074637;27;93862;-69
2022/09/13 09:12:58;;;;;;;3.97;1.50;;;;;;;;;;5089940;27;92618;-69
2022/09/13 09:15:24;;;;;;;3.40;1.60;;;;;;;;;;5075384;27;92448;-68
2022/09/13 09:18:06;;;;;;;5.65;1.63;;;;;;;;;;5074738;27;93361;-69
2022/09/13 09:20:35;;;;;;;1.90;1.40;;;;;;;;;;5075884;27;94279;-69
2022/09/13 09:23:05;;;;;;;3.42;1.60;;;;;;;;;;5076705;27;93273;-70
2022/09/13 09:25:33;;;;;;;3.08;1.45;;;;;;;;;;5093607;27;92427;-69
2022/09/13 09:28:00;;;;;;;3.00;1.40;;;;;;;;;;5095633;27;93172;-69
2022/09/13 09:30:34;;;;;;;5.72;1.35;;;;;;;;;;5075637;27;96553;-69
2022/09/13 09:33:23;;;;;;;4.00;1.52;;;;;;;;;;5077538;27;93128;-69
2022/09/13 09:35:50;;;;;;;4.53;1.50;;;;;;;;;;5029375;27;93279;-69
2022/09/13 09:38:36;;;;;;;5.28;1.42;;;;;;;;;;5074445;27;92505;-69
2022/09/13 09:41:04;;;;;;;3.00;1.20;;;;;;;;;;5075153;27;93932;-68
2022/09/13 09:43:51;;;;;;;4.93;1.63;;;;;;;;;;5080296;27;94234;-68
2022/09/13 09:46:19;;;;;;;1.30;0.90;;;;;;;;;;5084201;27;92955;-69
2022/09/13 09:48:50;;;;;;;2.67;1.13;;;;;;;;;;5073699;27;94368;-69
2022/09/13 09:51:17;;;;;;;2.33;1.05;;;;;;;;;;5073839;27;94143;-69
2022/09/13 09:53:46;;;;;;;3.25;1.17;;;;;;;;;;5074632;27;92888;-69
2022/09/13 09:56:22;;;;;;;5.55;1.25;;;;;;;;;;5079038;27;94896;-68
2022/09/13 09:58:49;;;;;;;2.08;1.13;;;;;;;;;;5075417;27;93357;-69
2022/09/13 10:01:24;;;;;;;3.17;1.10;;;;;;;;;;5074672;27;93341;-69
2022/09/13 10:03:53;;;;;;;2.90;1.30;;;;;;;;;;5074936;27;94861;-69
2022/09/13 10:06:21;;;;;;;4.05;1.27;;;;;;;;;;5074571;27;92901;-69
2022/09/13 10:08:54;;;;;;;4.75;1.50;;;;;;;;;;5078566;27;93715;-69
2022/09/13 10:11:21;;;;;;;2.83;1.00;;;;;;;;;;5095130;27;93300;-69
2022/09/13 10:14:01;;;;;;;2.35;1.00;;;;;;;;;;5089909;27;92450;-69
2022/09/13 10:16:28;;;;;;;5.43;1.23;;;;;;;;;;5080030;27;92765;-68
2022/09/13 10:19:15;;;;;;;3.88;1.17;;;;;;;;;;5078616;27;93095;-68
2022/09/13 10:21:41;;;;;;;6.75;1.63;;;;;;;;;;5061865;27;94875;-68
2022/09/13 10:24:20;;;;;;;3.20;1.40;;;;;;;;;;5081492;27;93332;-68
2022/09/13 10:26:46;;;;;;;5.53;1.40;;;;;;;;;;5080324;27;92624;-68
2022/09/13 10:29:15;;;;;;;3.00;1.40;;;;;;;;;;5082720;27;92913;-69
2022/09/13 10:31:43;;;;;;;3.75;1.20;;;;;;;;;;5078289;27;93577;-69
2022/09/13 10:34:09;;;;;;;6.18;1.67;;;;;;;;;;5087287;27;92523;-69
2022/09/13 10:36:36;;;;;;;1.50;1.33;;;;;;;;;;5074114;27;92828;-69
2022/09/13 10:39:20;;;;;;;7.22;1.90;;;;;;;;;;5075228;27;92584;-69
2022/09/13 10:41:48;;;;;;;1.88;1.10;;;;;;;;;;5078513;27;93000;-68
2022/09/13 10:44:29;;;;;;;6.82;1.73;;;;;;;;;;5079567;27;94348;-68
2022/09/13 10:46:56;;;;;;;2.83;1.27;;;;;;;;;;5076016;27;94870;-69
2022/09/13 10:49:36;;;;;;;6.75;1.50;;;;;;;;;;5072220;27;95509;-69
2022/09/13 10:52:21;;;;;;;8.63;1.75;;;;;;;;;;5080778;27;94506;-69
2022/09/13 10:54:47;;;;;;;3.15;1.10;;;;;;;;;;5079502;27;95028;-69
2022/09/13 10:57:46;;;;;;;5.07;1.15;;;;;;;;;;5094057;27;92980;-69
2022/09/13 11:00:15;;;;;;;2.08;1.77;;;;;;;;;;5049997;27;93761;-69
2022/09/13 11:02:50;;;;;;;3.53;1.42;;;;;;;;;;5090422;27;92521;-68
2022/09/13 11:05:17;;;;;;;6.38;1.42;;;;;;;;;;5078705;27;93094;-68
2022/09/13 11:07:50;;;;;;;5.18;1.02;;;;;;;;;;5079794;27;92454;-68
2022/09/13 11:10:16;;;;;;;2.03;1.17;;;;;;;;;;5076733;27;93334;-69
2022/09/13 11:12:48;;;;;;;2.05;1.20;;;;;;;;;;5071532;27;95666;-68
2022/09/13 11:15:21;;;;;;;5.25;1.33;;;;;;;;;;5076687;27;92426;-68
2022/09/13 11:17:50;;;;;;;3.83;1.50;;;;;;;;;;5072833;27;92983;-68
2022/09/13 11:20:20;;;;;;;3.90;1.30;;;;;;;;;;5074255;27;93504;-68
2022/09/13 11:22:54;;;;;;;2.15;1.65;;;;;;;;;;5074207;27;92399;-68
2022/09/13 11:25:47;;;;;;;2.17;1.23;;;;;;;;;;5082438;27;93635;-68
2022/09/13 11:28:21;;;;;;;2.45;1.50;;;;;;;;;;5079300;27;93365;-68
2022/09/13 11:31:03;;;;;;;3.75;1.10;;;;;;;;;;5080282;27;94357;-68
2022/09/13 11:33:45;;;;;;;2.22;1.02;;;;;;;;;;5077740;27;93261;-68
2022/09/13 11:36:33;;;;;;;2.85;1.25;;;;;;;;;;5077772;27;92391;-68
2022/09/13 11:39:00;;;;;;;4.47;1.38;;;;;;;;;;5075161;27;94761;-68
2022/09/13 11:41:45;;;;;;;3.03;0.90;;;;;;;;;;5077544;27;93524;-68
2022/09/13 11:44:11;;;;;;;4.13;1.25;;;;;;;;;;5077408;27;92505;-68
2022/09/13 11:46:47;;;;;;;3.72;1.38;;;;;;;;;;5091088;27;93201;-68
2022/09/13 11:49:32;;;;;;;2.92;1.50;;;;;;;;;;5081165;27;92585;-68
2022/09/13 11:52:08;;;;;;;4.78;1.65;;;;;;;;;;5079384;27;92718;-68
2022/09/13 11:54:49;;;;;;;3.85;1.17;;;;;;;;;;5076568;27;93344;-68
2022/09/13 11:57:18;;;;;;;2.45;1.00;;;;;;;;;;5077347;27;91665;-68
2022/09/13 11:59:56;;;;;;;1.92;1.00;;;;;;;;;;5075804;27;92311;-68
2022/09/13 12:02:28;;;;;;;3.67;1.23;;;;;;;;;;5076917;27;93146;-68
2022/09/13 12:04:57;;;;;;;6.05;1.33;;;;;;;;;;5074921;27;96775;-68
2022/09/13 12:07:45;;;;;;;4.47;1.58;;;;;;;;;;5076237;27;94624;-68
2022/09/13 12:10:14;;;;;;;4.20;2.05;;;;;;;;;;5076418;27;93409;-68
2022/09/13 12:12:41;;;;;;;2.95;1.42;;;;;;;;;;5095833;27;92500;-68
2022/09/13 12:15:16;;;;;;;2.35;1.35;;;;;;;;;;5096964;27;93389;-68
2022/09/13 12:17:44;;;;;;;3.42;1.33;;;;;;;;;;5096662;27;92410;-68
2022/09/13 12:20:27;;;;;;;1.98;1.25;;;;;;;;;;5097165;27;93607;-68
2022/09/13 12:22:53;;;;;;;3.22;1.10;;;;;;;;;;5093542;27;93010;-68
2022/09/13 12:25:24;;;;;;;6.05;1.17;;;;;;;;;;5077076;27;92471;-68
2022/09/13 12:28:01;;;;;;;2.80;1.52;;;;;;;;;;5075035;27;94289;-68
2022/09/13 12:30:32;;;;;;;5.00;1.40;;;;;;;;;;5074927;27;95977;-68
2022/09/13 12:32:59;;;;;;;4.00;1.15;;;;;;;;;;5076889;27;92379;-68
2022/09/13 12:35:28;;;;;;;3.28;1.13;;;;;;;;;;5079364;27;93651;-68
2022/09/13 12:38:05;;;;;;;4.65;1.10;;;;;;;;;;5075984;27;92349;-68
2022/09/13 12:40:42;;;;;;;2.00;1.00;;;;;;;;;;5079643;27;92757;-68
2022/09/13 12:43:21;;;;;;;2.05;1.00;;;;;;;;;;5076204;27;93516;-68
2022/09/13 12:46:14;;;;;;;2.80;1.42;;;;;;;;;;5076788;27;92397;-68
2022/09/13 12:49:05;;;;;;;6.30;1.30;;;;;;;;;;5052457;27;93844;-68
2022/09/13 12:51:52;;;;;;;4.93;1.33;;;;;;;;;;5076416;27;94043;-68
2022/09/13 12:54:45;;;;;;;1.92;1.05;;;;;;;;;;5076875;27;92369;-69
2022/09/13 12:57:23;;;;;;;1.23;1.10;;;;;;;;;;5077914;27;95410;-68
2022/09/13 12:59:52;;;;;;;4.07;1.20;;;;;;;;;;5079008;27;93433;-68
2022/09/13 13:02:23;;;;;;;6.78;1.60;;;;;;;;;;5076115;27;93681;-68
2022/09/13 13:04:53;;;;;;;1.08;0.85;;;;;;;;;;5076029;27;94227;-68
2022/09/13 13:07:21;;;;;;;5.07;1.30;;;;;;;;;;5076621;27;92428;-68
2022/09/13 13:09:49;;;;;;;6.18;1.20;;;;;;;;;;5075408;27;93831;-69
2022/09/13 13:12:25;;;;;;;2.20;1.00;;;;;;;;;;5076451;27;94807;-69
2022/09/13 13:14:52;;;;;;;3.05;1.13;;;;;;;;;;5076082;27;92550;-69
2022/09/13 13:17:42;;;;;;;8.15;1.48;;;;;;;;;;5077850;27;92557;-69
2022/09/13 13:20:27;;;;;;;2.72;1.00;;;;;;;;;;5076290;27;94254;-69
2022/09/13 13:23:03;;;;;;;3.85;1.40;;;;;;;;;;5077579;27;94811;-70
2022/09/13 13:25:31;;;;;;;6.03;1.23;;;;;;;;;;5075792;27;93699;-69
2022/09/13 13:27:57;;;;;;;14.15;1.92;;;;;;;;;;5075335;27;92470;-70
2022/09/13 13:30:41;;;;;;;0.75;0.70;;;;;;;;;;5075284;27;94017;-69
2022/09/13 13:33:12;;;;;;;3.25;0.80;;;;;;;;;;5076024;27;94148;-69
2022/09/13 13:35:38;;;;;;;3.95;1.30;;;;;;;;;;5078998;27;92511;-69
2022/09/13 13:38:34;;;;;;;2.67;1.20;;;;;;;;;;5074772;27;93305;-69
2022/09/13 13:41:04;;;;;;;4.78;1.23;;;;;;;;;;5058015;27;93255;-69
2022/09/13 13:43:36;;;;;;;3.30;1.10;;;;;;;;;;5076297;27;93365;-69
2022/09/13 13:46:11;;;;;;;5.97;1.20;;;;;;;;;;5078092;27;93861;-68
2022/09/13 13:48:39;;;;;;;7.25;1.13;;;;;;;;;;5074041;27;94979;-69
2022/09/13 13:51:12;;;;;;;2.88;1.10;;;;;;;;;;5073862;27;96286;-69
2022/09/13 13:53:41;;;;;;;2.95;1.17;;;;;;;;;;5078570;27;93965;-69
2022/09/13 13:56:16;;;;;;;4.45;1.42;;;;;;;;;;5075226;27;92462;-68
2022/09/13 13:58:51;;;;;;;4.43;1.40;;;;;;;;;;5074909;27;93954;-68
2022/09/13 14:01:22;;;;;;;5.43;1.13;;;;;;;;;;5075266;27;93509;-68
2022/09/13 14:03:53;;;;;;;4.07;1.02;;;;;;;;;;5092392;27;92505;-68
2022/09/13 14:06:27;;;;;;;3.75;1.00;;;;;;;;;;5098312;27;92823;-68
2022/09/13 14:08:56;;;;;;;7.13;1.02;;;;;;;;;;5083617;27;92604;-68
2022/09/13 14:11:43;;;;;;;3.90;1.00;;;;;;;;;;5087187;27;93066;-68
2022/09/13 14:14:31;;;;;;;2.75;0.70;;;;;;;;;;5092624;27;95858;-68
2022/09/13 14:17:16;;;;;;;6.35;1.20;;;;;;;;;;5084455;27;92923;-68
2022/09/13 14:19:45;;;;;;;4.03;1.13;;;;;;;;;;5073476;27;93071;-68
2022/09/13 14:22:12;;;;;;;4.85;1.15;;;;;;;;;;5075127;27;93193;-67
2022/09/13 14:24:47;;;;;;;3.30;1.10;;;;;;;;;;5075533;27;92508;-68
2022/09/13 14:27:19;;;;;;;5.65;1.08;;;;;;;;;;5093409;27;92882;-68
2022/09/13 14:29:46;;;;;;;2.17;1.00;;;;;;;;;;5097846;27;93355;-68
2022/09/13 14:32:16;;;;;;;1.35;0.75;;;;;;;;;;5095905;27;92737;-69
2022/09/13 14:35:08;;;;;;;3.40;1.20;;;;;;;;;;5083221;27;93461;-68
2022/09/13 14:37:35;;;;;;;2.13;0.82;;;;;;;;;;5050002;27;93108;-68
2022/09/13 14:40:04;;;;;;;10.25;1.50;;;;;;;;;;5072769;27;94891;-67
2022/09/13 14:42:38;;;;;;;5.45;1.27;;;;;;;;;;5076495;27;93232;-67
2022/09/13 14:45:04;;;;;;;5.90;1.30;;;;;;;;;;5074993;27;92464;-68
2022/09/13 14:47:34;;;;;;;5.60;1.17;;;;;;;;;;5073980;27;92968;-68
2022/09/13 14:50:03;;;;;;;9.10;1.20;;;;;;;;;;5073191;27;93175;-68
2022/09/13 14:52:31;;;;;;;4.20;0.85;;;;;;;;;;5078287;27;92443;-68
2022/09/13 14:55:03;;;;;;;4.28;1.02;;;;;;;;;;5072846;27;93464;-68
2022/09/13 14:57:33;;;;;;;3.97;1.27;;;;;;;;;;5079700;27;91843;-68